createdAt,value
2018-02-06T00:00:24.090Z,29.48
2018-02-06T00:02:51.554Z,23.60
2018-02-06T00:05:19.035Z,30.90
2018-02-06T00:07:46.469Z,25.80
2018-02-06T00:10:13.903Z,27.30
2018-02-06T00:12:41.351Z,25.83
2018-02-06T00:15:08.787Z,26.87
2018-02-06T00:17:36.239Z,24.80
2018-02-06T00:20:03.695Z,24.90
2018-02-06T00:22:42.859Z,24.63
2018-02-06T00:25:10.319Z,25.10
2018-02-06T00:27:37.837Z,25.48
2018-02-06T00:30:05.285Z,24.77
2018-02-06T00:32:33.480Z,28.30
2018-02-06T00:35:00.945Z,32.13
2018-02-06T00:37:28.412Z,27.87
2018-02-06T00:39:55.887Z,26.25
2018-02-06T00:42:23.352Z,32.15
2018-02-06T00:44:50.793Z,26.85
2018-02-06T00:47:18.249Z,22.23
2018-02-06T00:49:45.705Z,28.20
2018-02-06T00:52:13.156Z,25.65
2018-02-06T00:54:40.596Z,28.60
2018-02-06T00:57:08.083Z,29.05
2018-02-06T00:59:35.525Z,33.35
2018-02-06T01:02:02.988Z,30.60
2018-02-06T01:04:30.440Z,25.12
2018-02-06T01:06:57.896Z,32.83
2018-02-06T01:09:27.066Z,26.08
2018-02-06T01:11:54.522Z,26.77
2018-02-06T01:14:21.979Z,27.48
2018-02-06T01:16:49.463Z,25.65
2018-02-06T01:19:16.931Z,28.08
2018-02-06T01:21:44.373Z,24.58
2018-02-06T01:24:11.848Z,25.90
2018-02-06T01:26:39.341Z,27.92
2018-02-06T01:29:06.755Z,24.73
2018-02-06T01:31:34.210Z,25.60
2018-02-06T01:34:01.667Z,30.42
2018-02-06T01:36:29.125Z,24.48
2018-02-06T01:38:56.583Z,27.15
2018-02-06T01:41:24.039Z,27.10
2018-02-06T01:43:51.496Z,28.60
2018-02-06T01:46:18.927Z,26.83
2018-02-06T01:48:46.382Z,30.55
2018-02-06T01:51:13.839Z,31.65
2018-02-06T01:53:41.284Z,23.75
2018-02-06T01:56:09.489Z,24.90
2018-02-06T01:58:36.940Z,25.55
2018-02-06T02:01:04.395Z,23.95
2018-02-06T02:03:31.824Z,24.60
2018-02-06T02:05:59.277Z,25.25
2018-02-06T02:08:26.707Z,32.53
2018-02-06T02:10:54.172Z,28.87
2018-02-06T02:13:21.619Z,31.37
2018-02-06T02:15:49.059Z,28.52
2018-02-06T02:18:16.512Z,32.75
2018-02-06T02:20:43.972Z,27.52
2018-02-06T02:23:11.408Z,31.10
2018-02-06T02:25:38.868Z,33.30
2018-02-06T02:28:06.329Z,28.40
2018-02-06T02:30:33.790Z,31.23
2018-02-06T02:33:01.222Z,24.40
2018-02-06T02:35:28.671Z,30.65
2018-02-06T02:38:00.745Z,32.03
2018-02-06T02:40:28.180Z,26.48
2018-02-06T04:38:27.319Z,30.50
2018-02-06T04:40:54.770Z,27.13
2018-02-06T04:43:22.223Z,30.05
2018-02-06T04:45:49.698Z,28.50
2018-02-06T04:48:17.139Z,27.33
2018-02-06T04:50:44.603Z,28.90
2018-02-06T04:53:12.049Z,29.40
2018-02-06T04:55:39.498Z,32.80
2018-02-06T04:58:06.946Z,29.73
2018-02-06T05:00:34.379Z,31.17
2018-02-06T05:03:02.599Z,28.62
2018-02-06T05:05:30.053Z,28.45
2018-02-06T05:07:57.512Z,33.33
2018-02-06T05:10:24.951Z,31.60
2018-02-06T05:12:52.405Z,32.08
2018-02-06T05:15:19.844Z,30.95
2018-02-06T05:17:47.279Z,28.25
2018-02-06T05:20:14.726Z,31.08
2018-02-06T05:22:42.172Z,35.30
2018-02-06T05:25:09.622Z,33.38
2018-02-06T05:27:37.056Z,29.42
2018-02-06T05:30:04.515Z,33.60
2018-02-06T05:32:32.062Z,29.83
2018-02-06T05:34:59.534Z,33.25
2018-02-06T05:37:26.991Z,30.98
2018-02-06T05:39:54.418Z,32.95
2018-02-06T05:42:21.875Z,42.08
2018-02-06T05:44:49.309Z,34.63
2018-02-06T05:47:16.779Z,33.70
2018-02-06T05:49:44.218Z,33.65
2018-02-06T05:52:11.667Z,34.08
2018-02-06T05:54:39.115Z,30.62
2018-02-06T05:57:06.559Z,34.83
2018-02-06T05:59:34.013Z,33.40
2018-02-06T06:02:02.092Z,31.48
2018-02-06T06:04:29.551Z,32.17
2018-02-06T06:06:57.000Z,32.25
2018-02-06T06:09:24.457Z,30.00
2018-02-06T06:11:51.931Z,31.27
2018-02-06T06:14:19.369Z,35.22
2018-02-06T06:16:46.921Z,31.33
2018-02-06T06:19:14.364Z,29.60
2018-02-06T06:21:41.821Z,31.70
2018-02-06T06:24:09.272Z,32.20
2018-02-06T06:26:36.696Z,35.95
2018-02-06T06:29:04.931Z,28.75
2018-02-06T06:31:32.494Z,34.30
2018-02-06T06:34:00.086Z,31.87
2018-02-06T06:36:27.669Z,33.45
2018-02-06T06:38:55.990Z,31.30
2018-02-06T06:41:23.573Z,31.50
2018-02-06T06:43:51.110Z,34.20
2018-02-06T06:46:18.694Z,26.15
2018-02-06T06:48:46.242Z,32.75
2018-02-06T06:51:13.816Z,39.45
2018-02-06T06:53:41.417Z,30.45
2018-02-06T06:56:09.770Z,32.63
2018-02-06T06:58:37.323Z,32.38
2018-02-06T07:01:04.974Z,36.58
2018-02-06T07:03:32.555Z,34.13
2018-02-06T07:06:00.142Z,32.35
2018-02-06T07:08:27.745Z,37.90
2018-02-06T07:10:55.344Z,31.20
2018-02-06T07:13:22.938Z,31.30
2018-02-06T07:15:50.554Z,32.90
2018-02-06T07:18:18.139Z,38.70
2018-02-06T07:20:45.743Z,38.13
2018-02-06T07:23:13.301Z,43.60
2018-02-06T07:25:40.937Z,36.60
2018-02-06T07:28:08.546Z,39.47
2018-02-06T07:30:36.121Z,37.45
2018-02-06T07:33:03.765Z,33.00
2018-02-06T07:35:31.368Z,39.88
2018-02-06T07:37:58.921Z,38.38
2018-02-06T07:40:26.522Z,41.47
2018-02-06T07:42:54.081Z,37.45
2018-02-06T07:45:21.661Z,37.33
2018-02-06T07:47:49.246Z,37.63
2018-02-06T07:50:16.781Z,35.42
2018-02-06T07:52:44.353Z,31.65
2018-02-06T07:55:11.893Z,42.08
2018-02-06T07:57:39.470Z,30.85
2018-02-06T08:00:07.053Z,38.50
2018-02-06T08:02:35.363Z,33.97
2018-02-06T08:05:02.941Z,33.85
2018-02-06T08:07:30.601Z,35.65
2018-02-06T08:09:58.202Z,38.50
2018-02-06T08:12:25.848Z,28.83
2018-02-06T08:14:53.394Z,36.55
2018-02-06T08:17:20.950Z,34.25
2018-02-06T08:19:49.304Z,36.95
2018-02-06T08:22:16.863Z,43.67
2018-02-06T08:24:44.444Z,31.48
2018-02-06T08:27:12.000Z,34.03
2018-02-06T08:29:39.548Z,29.85
2018-02-06T08:32:07.125Z,36.80
2018-02-06T08:34:34.666Z,34.92
2018-02-06T08:37:02.226Z,32.30
2018-02-06T08:39:29.798Z,31.45
2018-02-06T08:41:57.409Z,32.47
2018-02-06T08:44:24.994Z,29.25
2018-02-06T08:46:52.541Z,34.53
2018-02-06T08:49:20.141Z,32.95
2018-02-06T08:51:47.726Z,35.65
2018-02-06T08:54:15.293Z,35.67
2018-02-06T08:56:42.865Z,36.35
2018-02-06T08:59:11.188Z,28.02
2018-02-06T09:01:38.738Z,37.78
2018-02-06T09:04:06.318Z,44.22
2018-02-06T09:06:34.621Z,33.63
2018-02-06T09:09:02.195Z,32.35
2018-02-06T09:11:29.744Z,30.50
2018-02-06T09:13:57.330Z,34.40
2018-02-06T09:16:24.906Z,33.33
2018-02-06T09:18:52.496Z,32.10
2018-02-06T09:21:20.049Z,29.83
2018-02-06T09:23:47.666Z,29.20
2018-02-06T09:26:16.002Z,28.70
2018-02-06T09:28:43.565Z,33.45
2018-02-06T09:31:11.140Z,32.05
2018-02-06T09:33:38.718Z,34.08
2018-02-06T09:36:07.143Z,45.22
2018-02-06T09:38:34.685Z,35.40
2018-02-06T09:41:02.364Z,28.50
2018-02-06T09:43:31.202Z,32.17
2018-02-06T09:45:59.573Z,37.47
2018-02-06T09:48:27.169Z,33.10
2018-02-06T09:50:54.702Z,27.63
2018-02-06T09:53:22.281Z,28.60
2018-02-06T09:55:49.866Z,30.17
2018-02-06T09:58:17.415Z,33.87
2018-02-06T10:00:45.003Z,30.93
2018-02-06T10:03:12.547Z,30.17
2018-02-06T10:05:40.117Z,43.37
2018-02-06T10:08:07.773Z,30.60
2018-02-06T10:10:35.354Z,29.93
2018-02-06T10:13:02.956Z,30.13
2018-02-06T10:15:31.290Z,28.10
2018-02-06T10:17:59.018Z,25.50
2018-02-06T10:20:26.581Z,29.50
2018-02-06T10:22:54.114Z,23.37
2018-02-06T10:25:21.678Z,24.33
2018-02-06T10:27:50.009Z,25.40
2018-02-06T10:30:17.550Z,31.80
2018-02-06T10:32:45.118Z,30.60
2018-02-06T10:35:12.681Z,39.47
2018-02-06T10:37:40.233Z,27.73
2018-02-06T10:40:08.038Z,26.50
2018-02-06T10:42:35.569Z,26.23
2018-02-06T10:45:03.187Z,26.00
2018-02-06T10:47:30.721Z,25.03
2018-02-06T10:49:58.286Z,21.63
2018-02-06T10:52:25.854Z,21.53
2018-02-06T10:54:53.455Z,22.30
2018-02-06T10:57:21.029Z,20.03
2018-02-06T10:59:48.601Z,18.77
2018-02-06T11:02:16.372Z,17.60
2018-02-06T11:04:43.997Z,15.80
2018-02-06T11:07:11.537Z,17.50
2018-02-06T11:09:39.109Z,22.70
2018-02-06T11:12:06.879Z,18.10
2018-02-06T11:14:34.438Z,20.10
2018-02-06T11:17:02.035Z,19.07
2018-02-06T11:19:29.569Z,19.50
2018-02-06T11:21:57.137Z,20.67
2018-02-06T11:24:24.678Z,20.10
2018-02-06T11:26:52.285Z,26.57
2018-02-06T11:29:19.885Z,24.70
2018-02-06T11:31:47.517Z,26.80
2018-02-06T11:34:15.910Z,23.70
2018-02-06T11:36:43.453Z,19.27
2018-02-06T11:39:11.045Z,20.13
2018-02-06T11:41:38.627Z,19.33
2018-02-06T11:44:06.164Z,18.47
2018-02-06T11:46:33.963Z,16.90
2018-02-06T11:49:01.502Z,17.70
2018-02-06T11:51:29.103Z,18.07
2018-02-06T11:53:56.643Z,18.10
2018-02-06T11:56:24.206Z,22.60
2018-02-06T11:58:51.786Z,19.20
2018-02-06T12:01:19.401Z,21.13
2018-02-06T12:03:46.982Z,20.90
2018-02-06T12:06:14.538Z,21.37
2018-02-06T12:08:42.300Z,23.90
2018-02-06T12:11:09.885Z,21.27
2018-02-06T12:13:37.457Z,21.10
2018-02-06T12:16:06.507Z,21.77
2018-02-06T12:18:34.085Z,23.33
2018-02-06T12:21:01.674Z,24.00
2018-02-06T12:23:29.213Z,22.73
2018-02-06T12:25:56.908Z,27.27
2018-02-06T12:28:24.501Z,22.70
2018-02-06T12:30:53.088Z,23.23
2018-02-06T12:33:20.667Z,23.70
2018-02-06T12:35:48.235Z,22.80
2018-02-06T12:38:15.838Z,24.50
2018-02-06T12:40:44.167Z,25.83
2018-02-06T12:43:11.950Z,26.73
2018-02-06T12:45:39.523Z,25.57
2018-02-06T12:48:07.097Z,25.57
2018-02-06T12:50:34.654Z,24.90
2018-02-06T12:53:02.989Z,29.77
2018-02-06T12:55:30.577Z,27.57
2018-02-06T12:57:58.158Z,27.73
2018-02-06T13:00:25.729Z,28.47
2018-02-06T13:02:53.429Z,28.73
2018-02-06T13:05:21.115Z,30.43
2018-02-06T13:07:48.838Z,31.60
2018-02-06T13:10:16.494Z,26.70
2018-02-06T13:12:44.160Z,27.07
2018-02-06T13:15:11.746Z,26.27
2018-02-06T13:17:39.317Z,25.97
2018-02-06T13:20:06.897Z,25.33
2018-02-06T13:22:35.297Z,26.13
2018-02-06T13:25:02.874Z,30.53
2018-02-06T13:27:30.458Z,23.03
2018-02-06T13:29:58.033Z,24.57
2018-02-06T13:32:25.608Z,25.80
2018-02-06T13:34:53.198Z,24.03
2018-02-06T13:37:20.776Z,24.60
2018-02-06T13:39:48.354Z,25.47
2018-02-06T13:42:15.910Z,21.80
2018-02-06T13:44:43.448Z,20.50
2018-02-06T13:47:11.120Z,24.93
2018-02-06T13:49:38.724Z,20.47
2018-02-06T13:52:06.301Z,21.77
2018-02-06T13:54:34.614Z,21.43
2018-02-06T13:57:02.399Z,22.37
2018-02-06T13:59:29.967Z,24.80
2018-02-06T14:01:57.543Z,22.10
2018-02-06T14:04:25.136Z,24.83
2018-02-06T14:06:52.717Z,25.07
2018-02-06T14:09:20.254Z,27.40
2018-02-06T14:11:47.830Z,24.57
2018-02-06T14:14:15.405Z,24.70
2018-02-06T14:16:43.010Z,22.27
2018-02-06T14:19:11.338Z,24.80
2018-02-06T14:21:38.894Z,25.20
2018-02-06T14:24:06.478Z,27.40
2018-02-06T14:26:34.113Z,28.73
2018-02-06T14:29:01.675Z,24.50
2018-02-06T14:31:29.265Z,24.80
2018-02-06T14:33:56.825Z,25.57
2018-02-06T14:36:24.409Z,25.00
2018-02-06T14:38:51.959Z,27.87
2018-02-06T14:41:19.702Z,25.90
2018-02-06T14:43:47.257Z,23.93
2018-02-06T14:46:14.841Z,25.90
2018-02-06T14:48:42.386Z,31.40
2018-02-06T14:51:09.978Z,30.50
2018-02-06T14:53:37.695Z,25.47
2018-02-06T14:56:05.290Z,25.87
2018-02-06T14:58:32.834Z,28.50
2018-02-06T15:01:00.430Z,25.13
2018-02-06T15:03:28.047Z,25.17
2018-02-06T15:05:55.627Z,27.43
2018-02-06T15:08:23.168Z,31.00
2018-02-06T15:10:50.757Z,23.77
2018-02-06T15:13:18.361Z,25.47
2018-02-06T15:15:45.956Z,28.57
2018-02-06T15:18:13.552Z,22.70
2018-02-06T15:20:41.121Z,27.13
2018-02-06T15:23:08.704Z,25.20
2018-02-06T15:25:36.335Z,31.13
2018-02-06T15:28:03.954Z,34.03
2018-02-06T15:30:31.554Z,26.90
2018-02-06T15:32:59.093Z,26.07
2018-02-06T15:35:27.398Z,25.67
2018-02-06T15:37:54.969Z,26.00
2018-02-06T15:40:22.561Z,25.90
2018-02-06T15:42:50.102Z,22.70
2018-02-06T15:45:18.418Z,22.97
2018-02-06T15:47:46.029Z,24.60
2018-02-06T15:50:13.516Z,21.87
2018-02-06T15:52:40.948Z,25.10
2018-02-06T15:55:08.391Z,31.33
2018-02-06T15:57:35.850Z,22.33
2018-02-06T16:00:03.293Z,22.03
2018-02-06T16:02:30.737Z,23.80
2018-02-06T16:04:58.195Z,25.03
2018-02-06T16:07:25.647Z,25.37
2018-02-06T16:09:53.237Z,28.47
2018-02-06T16:12:20.656Z,24.77
2018-02-06T16:14:48.106Z,24.87
2018-02-06T16:17:15.552Z,26.20
2018-02-06T16:19:43.006Z,27.27
2018-02-06T16:22:10.447Z,22.20
2018-02-06T16:24:37.908Z,25.00
2018-02-06T16:27:05.359Z,27.47
2018-02-06T16:29:32.836Z,24.10
2018-02-06T16:32:00.314Z,24.00
2018-02-06T16:34:28.535Z,24.77
2018-02-06T16:36:55.969Z,23.43
2018-02-06T16:39:23.420Z,27.10
2018-02-06T16:41:50.868Z,22.57
2018-02-06T16:44:18.319Z,26.23
2018-02-06T16:46:46.539Z,21.90
2018-02-06T16:49:14.008Z,26.33
2018-02-06T16:51:41.488Z,28.33
2018-02-06T16:54:08.952Z,24.10
2018-02-06T16:56:36.386Z,26.80
2018-02-06T16:59:03.848Z,22.43
2018-02-06T17:01:31.296Z,26.92
2018-02-06T17:03:58.749Z,34.03
2018-02-06T17:06:26.220Z,26.10
2018-02-06T17:08:53.720Z,24.07
2018-02-06T17:11:21.174Z,23.27
2018-02-06T17:13:49.589Z,24.67
2018-02-06T17:16:17.085Z,24.50
2018-02-06T17:18:44.543Z,31.07
2018-02-06T17:21:11.984Z,27.37
2018-02-06T17:23:39.477Z,26.60
2018-02-06T17:26:07.731Z,25.07
2018-02-06T17:28:35.181Z,29.13
2018-02-06T17:31:02.629Z,30.50
2018-02-06T17:33:30.092Z,27.13
2018-02-06T17:35:57.602Z,29.10
2018-02-06T17:38:25.055Z,23.10
2018-02-06T17:40:52.543Z,30.10
2018-02-06T17:43:20.008Z,24.57
2018-02-06T17:45:47.490Z,30.27
2018-02-06T17:48:14.948Z,23.97
2018-02-06T17:50:42.367Z,34.28
2018-02-06T17:53:09.828Z,28.08
2018-02-06T17:55:37.280Z,26.05
2018-02-06T17:58:04.752Z,29.80
2018-02-06T18:00:32.214Z,29.73
2018-02-06T18:02:59.677Z,32.47
2018-02-06T18:05:27.132Z,25.52
2018-02-06T18:07:54.615Z,27.48
2018-02-06T18:10:22.123Z,24.95
2018-02-06T18:12:49.560Z,27.27
2018-02-06T18:15:17.077Z,26.80
2018-02-06T18:17:44.502Z,31.30
2018-02-06T18:20:12.132Z,28.60
2018-02-06T18:22:39.634Z,29.63
2018-02-06T18:25:07.129Z,26.42
2018-02-06T18:27:34.649Z,27.33
2018-02-06T18:30:02.144Z,27.52
2018-02-06T18:32:30.382Z,32.78
2018-02-06T18:34:57.868Z,31.73
2018-02-06T18:37:25.344Z,27.97
2018-02-06T18:39:52.986Z,26.58
2018-02-06T18:42:22.636Z,28.27
2018-02-06T18:44:50.094Z,31.25
2018-02-06T18:47:17.552Z,27.60
2018-02-06T18:49:45.004Z,30.73
2018-02-06T18:52:13.520Z,31.75
2018-02-06T18:54:41.123Z,29.63
2018-02-06T18:57:08.577Z,34.30
2018-02-06T18:59:36.902Z,30.17
2018-02-06T19:02:04.398Z,32.38
2018-02-06T19:04:31.885Z,31.90
2018-02-06T19:06:59.319Z,28.48
2018-02-06T19:09:26.771Z,32.90
2018-02-06T19:11:54.230Z,28.42
2018-02-06T19:14:21.695Z,29.37
2018-02-06T19:16:49.916Z,30.65
2018-02-06T19:19:17.352Z,30.50
2018-02-06T19:21:44.807Z,30.88
2018-02-06T19:24:12.279Z,29.48
2018-02-06T19:26:39.920Z,29.60
2018-02-06T19:29:07.367Z,29.50
2018-02-06T19:31:34.833Z,29.92
2018-02-06T19:34:02.265Z,35.10
2018-02-06T19:36:29.723Z,28.48
2018-02-06T19:38:57.197Z,30.70
2018-02-06T19:41:24.684Z,37.45
2018-02-06T19:43:52.142Z,31.85
2018-02-06T19:46:19.583Z,27.85
2018-02-06T19:48:47.033Z,32.00
2018-02-06T19:51:14.508Z,27.33
2018-02-06T19:53:41.947Z,28.40
2018-02-06T19:56:09.459Z,33.78
2018-02-06T19:58:36.919Z,25.67
2018-02-06T20:01:04.352Z,33.10
2018-02-06T20:03:32.558Z,29.12
2018-02-06T20:06:00.015Z,31.70
2018-02-06T20:08:27.487Z,32.45
2018-02-06T20:10:55.717Z,36.90
2018-02-06T20:13:23.151Z,32.70
2018-02-06T20:15:50.621Z,31.65
2018-02-06T20:18:18.059Z,29.40
2018-02-06T20:20:45.517Z,31.23
2018-02-06T20:23:13.050Z,33.40
2018-02-06T20:25:40.498Z,29.05
2018-02-06T20:28:07.956Z,28.92
2018-02-06T20:30:35.417Z,31.92
2018-02-06T20:33:02.864Z,28.42
2018-02-06T20:35:30.311Z,25.77
2018-02-06T20:37:57.759Z,35.53
2018-02-06T20:40:25.218Z,29.55
2018-02-06T20:42:52.683Z,30.88
2018-02-06T20:45:20.151Z,31.58
2018-02-06T20:47:47.579Z,35.08
2018-02-06T20:50:15.027Z,29.20
2018-02-06T20:52:42.471Z,24.42
2018-02-06T20:55:09.916Z,28.10
2018-02-06T20:57:37.367Z,30.80
2018-02-06T21:00:04.869Z,32.15
2018-02-06T21:02:32.290Z,29.08
2018-02-06T21:04:59.756Z,30.98
2018-02-06T21:07:27.224Z,29.85
2018-02-06T21:09:54.675Z,33.35
2018-02-06T21:12:22.338Z,28.00
2018-02-06T21:14:49.870Z,35.22
2018-02-06T21:17:17.313Z,30.88
2018-02-06T21:19:44.770Z,34.47
2018-02-06T21:22:12.230Z,30.55
2018-02-06T21:24:39.666Z,30.65
2018-02-06T21:27:07.107Z,30.45
2018-02-06T21:29:34.569Z,33.90
2018-02-06T21:32:02.037Z,30.70
2018-02-06T21:34:29.484Z,31.52
2018-02-06T21:36:56.969Z,32.17
2018-02-06T21:39:24.431Z,41.65
2018-02-06T21:41:51.890Z,37.88
2018-02-06T21:44:19.347Z,36.17
2018-02-06T21:46:46.800Z,29.98
2018-02-06T21:49:15.022Z,32.35
2018-02-06T21:51:42.459Z,29.45
2018-02-06T21:54:09.929Z,32.33
2018-02-06T21:56:37.361Z,37.88
2018-02-06T21:59:05.019Z,35.85
2018-02-06T22:01:32.466Z,32.58
2018-02-06T22:03:59.924Z,31.48
2018-02-06T22:06:27.368Z,31.12
2018-02-06T22:08:54.834Z,30.45
2018-02-06T22:11:22.265Z,33.20
2018-02-06T22:13:49.704Z,32.15
2018-02-06T22:16:17.145Z,37.35
2018-02-06T22:18:44.630Z,31.27
2018-02-06T22:21:12.143Z,34.35
2018-02-06T22:23:39.583Z,33.70
2018-02-06T22:26:07.036Z,34.50
2018-02-06T22:28:34.502Z,37.22
2018-02-06T22:31:01.958Z,38.22
2018-02-06T22:33:29.418Z,37.63
2018-02-06T22:35:57.639Z,36.53
2018-02-06T22:38:25.085Z,38.33
2018-02-06T22:40:52.536Z,39.42
2018-02-06T22:43:20.166Z,44.28
2018-02-06T22:45:47.608Z,35.70
2018-02-06T22:48:15.047Z,37.58
2018-02-06T22:50:42.499Z,39.97
2018-02-06T22:53:09.947Z,36.00
2018-02-06T22:55:37.391Z,43.97
2018-02-06T22:58:04.849Z,40.05
2018-02-06T23:00:32.313Z,41.60
2018-02-06T23:02:59.748Z,36.35
2018-02-06T23:05:27.308Z,36.38
2018-02-06T23:07:54.766Z,36.30
2018-02-06T23:10:22.223Z,38.05
2018-02-06T23:12:49.687Z,37.00
2018-02-06T23:15:17.126Z,31.65
2018-02-06T23:17:44.583Z,33.60
2018-02-06T23:20:12.020Z,34.58
2018-02-06T23:22:39.476Z,36.15
2018-02-06T23:25:06.936Z,36.10
2018-02-06T23:27:34.371Z,32.38
2018-02-06T23:30:02.592Z,41.03
2018-02-06T23:32:30.028Z,33.47
2018-02-06T23:34:57.488Z,37.72
2018-02-06T23:37:24.955Z,34.78
2018-02-06T23:39:52.392Z,33.63
2018-02-06T23:42:20.626Z,33.20
2018-02-06T23:44:48.062Z,31.95
2018-02-06T23:47:15.519Z,37.05
2018-02-06T23:49:43.072Z,44.03
2018-02-06T23:52:10.500Z,39.80
2018-02-06T23:54:37.943Z,41.17
2018-02-06T23:57:05.392Z,39.38
2018-02-06T23:59:32.850Z,43.25
